createdAt,value
2023-03-24T00:01:07.650Z,100282.31
2023-03-24T00:04:11.266Z,100275.84
2023-03-24T00:07:15.086Z,100285.72
2023-03-24T00:10:20.621Z,100280.87
2023-03-24T00:13:23.906Z,100276.19
2023-03-24T00:16:27.562Z,100283.66
2023-03-24T00:19:30.752Z,100261.06
2023-03-24T00:22:36.332Z,100265.34
2023-03-24T00:25:40.313Z,100274.06
2023-03-24T00:28:45.899Z,100268.84
2023-03-24T00:31:48.969Z,100267.94
2023-03-24T00:34:54.445Z,100267.59
2023-03-24T00:37:58.541Z,100265.81
2023-03-24T00:41:02.672Z,100259.34
2023-03-24T00:44:06.913Z,100261.31
2023-03-24T00:47:11.254Z,100255.59
2023-03-24T00:50:20.770Z,100257.03
2023-03-24T00:53:26.008Z,100247.97
2023-03-24T00:56:31.639Z,100236.66
2023-03-24T00:59:42.523Z,100238.88
2023-03-24T01:02:48.421Z,100222.94
2023-03-24T01:05:54.504Z,100220.81
2023-03-24T01:08:58.800Z,100233.44
2023-03-24T01:12:04.479Z,100231.72
2023-03-24T01:15:21.462Z,100230.91
2023-03-24T01:18:25.147Z,100232.53
2023-03-24T01:21:28.439Z,100220.31
2023-03-24T01:24:31.883Z,100214.28
2023-03-24T01:27:35.332Z,100219.16
2023-03-24T01:30:39.735Z,100217.91
2023-03-24T01:33:44.002Z,100205.56
2023-03-24T01:36:47.471Z,100201.44
2023-03-24T01:39:51.856Z,100202.50
2023-03-24T01:42:57.864Z,100191.94
2023-03-24T01:46:06.383Z,100189.59
2023-03-24T01:49:10.010Z,100206.84
2023-03-24T01:52:19.356Z,100211.72
2023-03-24T01:55:23.717Z,100208.06
2023-03-24T01:58:32.932Z,100189.59
2023-03-24T02:01:40.007Z,100201.19
2023-03-24T02:04:50.577Z,100195.63
2023-03-24T02:08:13.799Z,100201.50
2023-03-24T02:11:18.828Z,100200.47
2023-03-24T02:14:27.708Z,100196.78
2023-03-24T02:18:00.562Z,100192.47
2023-03-24T02:21:10.068Z,100191.34
2023-03-24T02:24:46.705Z,100183.37
2023-03-24T02:28:26.391Z,100187.50
2023-03-24T02:31:55.502Z,100194.41
2023-03-24T02:35:20.644Z,100192.97
2023-03-24T02:38:55.170Z,100183.00
2023-03-24T02:42:26.596Z,100180.41
2023-03-24T02:45:33.076Z,100179.59
2023-03-24T02:48:36.516Z,100172.72
2023-03-24T02:52:19.275Z,100172.87
2023-03-24T02:55:36.289Z,100167.72
2023-03-24T02:58:48.853Z,100174.94
2023-03-24T03:02:04.004Z,100169.59
2023-03-24T03:05:14.613Z,100169.59
2023-03-24T03:08:21.767Z,100165.22
2023-03-24T03:11:25.994Z,100170.59
2023-03-24T03:14:36.689Z,100158.41
2023-03-24T03:17:53.382Z,100173.94
2023-03-24T03:21:04.681Z,100185.81
2023-03-24T03:24:15.747Z,100179.13
2023-03-24T03:27:39.398Z,100158.22
2023-03-24T03:30:47.592Z,100163.72
2023-03-24T03:34:23.355Z,100169.56
2023-03-24T03:37:34.614Z,100175.28
2023-03-24T03:40:44.414Z,100155.97
2023-03-24T03:43:50.029Z,100160.19
2023-03-24T03:46:53.808Z,100161.25
2023-03-24T03:49:58.009Z,100150.88
2023-03-24T03:53:01.585Z,100153.41
2023-03-24T03:56:05.184Z,100151.16
2023-03-24T03:59:23.612Z,100147.94
2023-03-24T04:02:48.696Z,100147.28
2023-03-24T04:06:09.094Z,100151.81
2023-03-24T04:09:35.934Z,100157.03
2023-03-24T04:12:50.029Z,100151.63
2023-03-24T04:16:18.078Z,100159.53
2023-03-24T04:19:39.134Z,100155.03
2023-03-24T04:23:03.328Z,100156.91
2023-03-24T04:26:27.952Z,100151.06
2023-03-24T04:29:46.889Z,100162.66
2023-03-24T04:32:58.669Z,100162.66
2023-03-24T04:36:17.071Z,100152.06
2023-03-24T04:39:28.343Z,100153.72
2023-03-24T04:42:42.986Z,100156.97
2023-03-24T04:45:50.076Z,100155.97
2023-03-24T04:48:53.729Z,100156.91
2023-03-24T04:51:57.952Z,100145.94
2023-03-24T04:55:02.551Z,100157.38
2023-03-24T04:58:06.984Z,100152.47
2023-03-24T05:01:10.506Z,100156.69
2023-03-24T05:04:14.634Z,100160.81
2023-03-24T05:07:18.013Z,100166.69
2023-03-24T05:10:22.193Z,100159.16
2023-03-24T05:13:25.824Z,100154.41
2023-03-24T05:16:29.750Z,100148.94
2023-03-24T05:19:34.744Z,100162.00
2023-03-24T05:22:40.509Z,100153.59
2023-03-24T05:25:44.332Z,100161.28
2023-03-24T05:28:47.937Z,100165.16
2023-03-24T05:31:51.258Z,100178.09
2023-03-24T05:34:54.832Z,100175.53
2023-03-24T05:37:59.590Z,100180.81
2023-03-24T05:41:03.742Z,100173.84
2023-03-24T05:44:07.520Z,100177.38
2023-03-24T05:47:12.936Z,100182.69
2023-03-24T05:50:16.316Z,100185.63
2023-03-24T05:53:21.200Z,100182.47
2023-03-24T05:56:26.526Z,100192.66
2023-03-24T05:59:31.969Z,100190.22
2023-03-24T06:02:36.292Z,100182.47
2023-03-24T06:05:40.185Z,100175.47
2023-03-24T06:08:45.233Z,100174.59
2023-03-24T06:11:49.207Z,100193.56
2023-03-24T06:14:52.562Z,100192.75
2023-03-24T06:17:55.949Z,100190.50
2023-03-24T06:20:59.933Z,100180.44
2023-03-24T06:24:04.585Z,100178.19
2023-03-24T06:27:09.204Z,100183.00
2023-03-24T06:30:18.288Z,100173.16
2023-03-24T06:33:22.337Z,100186.03
2023-03-24T06:36:26.355Z,100177.91
2023-03-24T06:39:30.698Z,100168.41
2023-03-24T06:42:36.164Z,100175.69
2023-03-24T06:45:41.169Z,100164.22
2023-03-24T06:48:47.210Z,100185.03
2023-03-24T06:51:50.471Z,100176.41
2023-03-24T06:54:55.159Z,100175.81
2023-03-24T06:57:59.622Z,100171.31
2023-03-24T07:01:05.407Z,100161.00
2023-03-24T07:04:09.053Z,100155.87
2023-03-24T07:07:38.544Z,100162.97
2023-03-24T07:10:37.926Z,100155.97
2023-03-24T07:13:41.848Z,100156.03
2023-03-24T07:16:45.200Z,100150.34
2023-03-24T07:19:50.060Z,100151.94
2023-03-24T07:22:58.214Z,100152.31
2023-03-24T07:26:04.462Z,100139.81
2023-03-24T07:29:08.948Z,100127.94
2023-03-24T07:32:13.385Z,100138.84
2023-03-24T07:35:18.053Z,100128.22
2023-03-24T07:38:21.662Z,100126.53
2023-03-24T07:41:27.196Z,100134.94
2023-03-24T07:44:31.767Z,100135.91
2023-03-24T07:47:36.474Z,100129.66
2023-03-24T07:50:40.362Z,100121.97
2023-03-24T07:53:45.813Z,100107.81
2023-03-24T07:56:50.836Z,100112.50
2023-03-24T07:59:54.182Z,100112.38
2023-03-24T08:03:00.313Z,100106.94
2023-03-24T08:06:07.870Z,100098.06
2023-03-24T08:09:13.428Z,100093.31
2023-03-24T08:12:20.478Z,100070.69
2023-03-24T08:15:26.513Z,100074.22
2023-03-24T08:18:32.770Z,100074.69
2023-03-24T08:21:36.693Z,100067.97
2023-03-24T08:24:41.318Z,100061.00
2023-03-24T08:27:45.084Z,100050.28
2023-03-24T08:30:51.227Z,100049.59
2023-03-24T08:33:54.555Z,100037.31
2023-03-24T08:36:58.034Z,100035.84
2023-03-24T08:40:05.503Z,100038.97
2023-03-24T08:43:15.101Z,100040.03
2023-03-24T08:46:18.372Z,100045.59
2023-03-24T08:49:26.948Z,100031.34
2023-03-24T08:52:31.943Z,100039.56
2023-03-24T08:55:38.652Z,100033.75
2023-03-24T08:58:41.793Z,100030.63
2023-03-24T09:01:52.387Z,100024.41
2023-03-24T09:04:56.246Z,100018.78
2023-03-24T09:08:01.587Z,100005.59
2023-03-24T09:11:06.200Z,100009.81
2023-03-24T09:14:09.694Z,100011.03
2023-03-24T09:17:13.249Z,100008.66
2023-03-24T09:20:18.760Z,100002.72
2023-03-24T09:23:22.566Z,100011.97
2023-03-24T09:26:26.143Z,100010.59
2023-03-24T09:29:30.280Z,99991.88
2023-03-24T09:32:34.219Z,99995.63
2023-03-24T09:35:37.558Z,99990.34
2023-03-24T09:38:41.149Z,99990.19
2023-03-24T09:41:48.765Z,99991.25
2023-03-24T09:44:58.302Z,99983.84
2023-03-24T09:48:08.076Z,99990.88
2023-03-24T09:51:21.874Z,99994.59
2023-03-24T09:54:58.823Z,99979.41
2023-03-24T09:58:08.564Z,99980.25
2023-03-24T10:01:16.802Z,99972.34
2023-03-24T10:04:24.685Z,99966.72
2023-03-24T10:07:39.002Z,99966.91
2023-03-24T10:11:01.998Z,99971.00
2023-03-24T10:14:18.794Z,99951.50
2023-03-24T10:17:50.000Z,99952.00
2023-03-24T10:21:13.526Z,99940.22
2023-03-24T13:19:38.614Z,99697.31
2023-03-24T13:22:46.080Z,99694.88
2023-03-24T13:25:52.540Z,99691.06
2023-03-24T13:29:11.693Z,99691.06
2023-03-24T13:32:24.519Z,99689.69
2023-03-24T13:35:58.922Z,99693.25
2023-03-24T13:39:12.203Z,99675.38
2023-03-24T13:42:48.169Z,99682.34
2023-03-24T13:46:00.683Z,99674.34
2023-03-24T13:49:09.278Z,99669.50
2023-03-24T13:52:25.750Z,99676.59
2023-03-24T13:55:34.257Z,99666.84
2023-03-24T13:58:50.397Z,99662.78
2023-03-24T14:02:19.019Z,99659.47
2023-03-24T14:05:22.608Z,99645.44
2023-03-24T14:08:43.938Z,99644.94
2023-03-24T14:12:17.368Z,99645.59
2023-03-24T14:15:41.265Z,99636.31
2023-03-24T14:18:45.089Z,99627.03
2023-03-24T14:21:53.463Z,99623.91
2023-03-24T14:25:01.323Z,99631.34
2023-03-24T14:28:38.677Z,99632.63
2023-03-24T14:31:42.288Z,99625.53
2023-03-24T14:35:26.845Z,99633.22
2023-03-24T14:38:36.615Z,99638.62
2023-03-24T14:41:42.157Z,99638.62
2023-03-24T14:44:45.394Z,99629.59
2023-03-24T14:47:57.002Z,99631.00
2023-03-24T14:51:17.060Z,99628.44
2023-03-24T14:54:52.807Z,99612.59
2023-03-24T14:58:01.030Z,99621.91
2023-03-24T15:01:08.119Z,99623.44
2023-03-24T15:04:15.146Z,99621.72
2023-03-24T15:07:18.978Z,99614.09
2023-03-24T15:10:22.450Z,99612.59
2023-03-24T15:13:29.911Z,99609.12
2023-03-24T15:16:37.981Z,99609.88
2023-03-24T15:19:41.910Z,99603.19
2023-03-24T15:22:46.043Z,99606.75
2023-03-24T15:25:49.339Z,99601.69
2023-03-24T15:28:56.880Z,99596.44
2023-03-24T15:32:00.547Z,99597.19
2023-03-24T15:35:06.228Z,99594.25
2023-03-24T15:38:19.486Z,99599.72
2023-03-24T15:41:23.448Z,99593.38
2023-03-24T15:44:31.180Z,99598.19
2023-03-24T15:47:41.245Z,99589.13
2023-03-24T15:51:03.012Z,99591.38
2023-03-24T15:54:22.786Z,99598.66
2023-03-24T15:57:27.439Z,99591.03
2023-03-24T16:00:39.058Z,99597.75
2023-03-24T16:03:43.280Z,99586.03
2023-03-24T16:06:53.954Z,99588.47
2023-03-24T16:10:06.076Z,99588.50
2023-03-24T16:13:20.157Z,99584.44
2023-03-24T16:16:38.473Z,99594.56
2023-03-24T16:19:41.988Z,99598.38
2023-03-24T16:22:46.753Z,99589.66
2023-03-24T16:25:50.040Z,99587.28
2023-03-24T16:28:55.204Z,99589.22
2023-03-24T16:31:58.976Z,99585.62
2023-03-24T16:35:02.712Z,99591.41
2023-03-24T16:38:06.148Z,99589.81
2023-03-24T16:41:11.566Z,99583.94
2023-03-24T16:44:17.448Z,99583.03
2023-03-24T16:47:21.786Z,99590.75
2023-03-24T16:50:32.396Z,99593.91
2023-03-24T16:53:36.207Z,99594.88
2023-03-24T16:56:40.415Z,99586.62
2023-03-24T16:59:44.195Z,99584.00
2023-03-24T17:02:48.538Z,99592.34
2023-03-24T17:05:52.252Z,99588.00
2023-03-24T17:08:56.084Z,99592.34
2023-03-24T17:12:02.305Z,99596.41
2023-03-24T17:15:06.417Z,99594.16
2023-03-24T17:18:10.337Z,99587.25
2023-03-24T17:21:17.296Z,99589.53
2023-03-24T17:24:21.439Z,99596.25
2023-03-24T17:27:24.939Z,99586.56
2023-03-24T17:34:52.059Z,99585.41
2023-03-24T17:37:56.561Z,99585.47
2023-03-24T17:41:04.679Z,99579.34
2023-03-24T17:44:09.106Z,99577.13
2023-03-24T17:47:14.048Z,99579.75
2023-03-24T17:50:19.657Z,99589.13
2023-03-24T17:53:27.383Z,99586.72
2023-03-24T17:56:32.918Z,99578.28
2023-03-24T17:59:40.252Z,99576.16
2023-03-24T18:02:46.371Z,99565.56
2023-03-24T18:05:51.357Z,99571.63
2023-03-24T18:08:55.432Z,99564.19
2023-03-24T18:11:59.422Z,99570.81
2023-03-24T18:15:08.394Z,99576.78
2023-03-24T18:18:12.664Z,99575.91
2023-03-24T18:21:17.616Z,99580.66
2023-03-24T18:24:22.235Z,99579.78
2023-03-24T18:27:27.737Z,99578.75
2023-03-24T18:30:33.093Z,99591.78
2023-03-24T18:33:38.683Z,99594.63
2023-03-24T18:36:43.979Z,99590.78
2023-03-24T18:39:48.853Z,99592.09
2023-03-24T18:42:53.535Z,99588.50
2023-03-24T18:45:58.931Z,99598.81
2023-03-24T18:49:04.099Z,99597.53
2023-03-24T18:52:10.557Z,99589.91
2023-03-24T18:55:18.388Z,99581.75
2023-03-24T18:58:24.565Z,99582.16
2023-03-24T19:01:36.383Z,99570.69
2023-03-24T19:04:40.965Z,99592.91
2023-03-24T19:07:47.146Z,99553.47
2023-03-24T19:10:55.981Z,99576.38
2023-03-24T19:14:01.876Z,99572.97
2023-03-24T19:17:07.246Z,99585.62
2023-03-24T19:20:14.751Z,99574.19
2023-03-24T19:23:21.364Z,99570.75
2023-03-24T19:26:26.491Z,99563.88
2023-03-24T19:29:31.068Z,99570.03
2023-03-24T19:32:36.664Z,99558.00
2023-03-24T19:35:41.326Z,99559.25
2023-03-24T19:38:45.579Z,99566.16
2023-03-24T19:41:53.022Z,99549.25
2023-03-24T19:44:59.405Z,99566.00
2023-03-24T19:48:04.347Z,99566.97
2023-03-24T19:51:09.206Z,99540.91
2023-03-24T19:54:13.956Z,99559.53
2023-03-24T19:57:23.296Z,99560.81
2023-03-24T20:00:27.875Z,99554.78
2023-03-24T20:03:33.710Z,99547.62
2023-03-24T20:06:38.656Z,99551.50
2023-03-24T20:09:43.912Z,99556.63
2023-03-24T20:12:48.952Z,99552.88
2023-03-24T20:15:54.278Z,99540.97
2023-03-24T20:18:59.322Z,99558.28
2023-03-24T20:22:07.001Z,99551.53
2023-03-24T20:25:12.034Z,99567.63
2023-03-24T20:28:17.279Z,99585.56
2023-03-24T20:31:22.405Z,99558.47
2023-03-24T20:34:27.557Z,99597.78
2023-03-24T20:37:36.369Z,99593.66
2023-03-24T20:40:41.827Z,99582.91
2023-03-24T20:43:46.686Z,99580.03
2023-03-24T20:46:54.257Z,99584.69
2023-03-24T20:49:58.592Z,99572.00
2023-03-24T20:53:04.058Z,99580.91
2023-03-24T20:56:11.236Z,99585.66
2023-03-24T20:59:17.674Z,99581.63
2023-03-24T21:02:21.946Z,99571.19
2023-03-24T21:05:27.444Z,99577.44
2023-03-24T21:08:31.944Z,99565.75
2023-03-24T21:11:41.452Z,99560.94
2023-03-24T21:14:47.360Z,99568.28
2023-03-24T21:17:53.693Z,99569.63
2023-03-24T21:20:57.994Z,99574.31
2023-03-24T21:24:04.671Z,99568.09
2023-03-24T21:27:08.809Z,99573.75
2023-03-24T21:30:13.593Z,99568.78
2023-03-24T21:33:18.221Z,99585.75
2023-03-24T21:36:23.743Z,99583.78
2023-03-24T21:39:27.702Z,99582.19
2023-03-24T21:42:34.998Z,99590.06
2023-03-24T21:45:38.837Z,99590.37
2023-03-24T21:48:50.287Z,99594.12
2023-03-24T21:51:55.256Z,99598.97
2023-03-24T21:54:58.684Z,99605.59
2023-03-24T21:58:01.831Z,99605.44
2023-03-24T22:01:05.919Z,99598.16
2023-03-24T22:04:10.796Z,99610.22
2023-03-24T22:07:14.287Z,99615.41
2023-03-24T22:10:22.962Z,99623.31
2023-03-24T22:13:27.812Z,99603.66
2023-03-24T22:16:33.181Z,99624.19
2023-03-24T22:19:38.216Z,99616.31
2023-03-24T22:22:41.979Z,99617.03
2023-03-24T22:25:45.114Z,99621.75
2023-03-24T22:28:50.740Z,99621.47
2023-03-24T22:31:55.143Z,99612.84
2023-03-24T22:34:58.765Z,99619.75
2023-03-24T22:38:02.694Z,99609.69
2023-03-24T22:41:09.573Z,99568.72
2023-03-24T22:44:14.114Z,99590.16
2023-03-24T22:47:17.694Z,99595.03
2023-03-24T22:50:20.943Z,99578.12
2023-03-24T22:53:24.553Z,99575.31
2023-03-24T22:56:27.821Z,99575.88
2023-03-24T22:59:32.540Z,99568.75
2023-03-24T23:02:35.959Z,99574.78
2023-03-24T23:05:46.615Z,99568.94
2023-03-24T23:08:50.358Z,99571.91
2023-03-24T23:11:55.083Z,99578.25
2023-03-24T23:14:58.284Z,99578.38
2023-03-24T23:18:02.243Z,99577.94
2023-03-24T23:21:09.389Z,99574.22
2023-03-24T23:24:13.006Z,99584.50
2023-03-24T23:27:16.444Z,99578.81
2023-03-24T23:30:20.209Z,99572.50
2023-03-24T23:33:24.193Z,99556.72
2023-03-24T23:36:28.547Z,99542.69
2023-03-24T23:39:36.930Z,99559.16
2023-03-24T23:42:42.415Z,99557.84
2023-03-24T23:45:46.811Z,99557.41
2023-03-24T23:48:51.008Z,99553.56
2023-03-24T23:51:54.133Z,99572.72
2023-03-24T23:54:58.611Z,99563.38
2023-03-24T23:58:02.486Z,99560.22
